sensor_id;sensor_type;location;lat;lon;timestamp;P1;durP1;ratioP1;P2;durP2;ratioP2
71836;SDS011;59686;51.716;7.016;2024-02-26T00:01:31;4.43;;;2.30;;
71836;SDS011;59686;51.716;7.016;2024-02-26T00:03:59;2.57;;;2.20;;
71836;SDS011;59686;51.716;7.016;2024-02-26T00:06:24;2.10;;;1.90;;
71836;SDS011;59686;51.716;7.016;2024-02-26T00:08:50;3.83;;;2.13;;
71836;SDS011;59686;51.716;7.016;2024-02-26T00:11:16;2.93;;;2.20;;
71836;SDS011;59686;51.716;7.016;2024-02-26T00:13:42;2.40;;;2.07;;
71836;SDS011;59686;51.716;7.016;2024-02-26T00:16:07;2.60;;;2.10;;
71836;SDS011;59686;51.716;7.016;2024-02-26T00:18:33;2.23;;;1.90;;
71836;SDS011;59686;51.716;7.016;2024-02-26T00:20:59;2.20;;;1.97;;
71836;SDS011;59686;51.716;7.016;2024-02-26T00:23:25;2.30;;;1.90;;
71836;SDS011;59686;51.716;7.016;2024-02-26T00:25:52;3.60;;;2.10;;
71836;SDS011;59686;51.716;7.016;2024-02-26T00:28:18;3.17;;;2.00;;
71836;SDS011;59686;51.716;7.016;2024-02-26T00:30:45;2.60;;;2.10;;
71836;SDS011;59686;51.716;7.016;2024-02-26T00:33:11;2.30;;;2.10;;
71836;SDS011;59686;51.716;7.016;2024-02-26T00:35:36;1.90;;;1.70;;
71836;SDS011;59686;51.716;7.016;2024-02-26T00:38:02;2.20;;;1.80;;
71836;SDS011;59686;51.716;7.016;2024-02-26T00:40:29;2.20;;;2.00;;
71836;SDS011;59686;51.716;7.016;2024-02-26T00:42:55;3.90;;;2.30;;
71836;SDS011;59686;51.716;7.016;2024-02-26T00:45:20;3.53;;;2.10;;
71836;SDS011;59686;51.716;7.016;2024-02-26T00:47:47;2.33;;;2.00;;
71836;SDS011;59686;51.716;7.016;2024-02-26T00:50:14;3.13;;;2.20;;
71836;SDS011;59686;51.716;7.016;2024-02-26T00:52:40;2.33;;;1.93;;
71836;SDS011;59686;51.716;7.016;2024-02-26T00:55:06;2.47;;;2.00;;
71836;SDS011;59686;51.716;7.016;2024-02-26T00:57:32;2.83;;;2.00;;
71836;SDS011;59686;51.716;7.016;2024-02-26T00:59:58;2.10;;;1.90;;
71836;SDS011;59686;51.716;7.016;2024-02-26T01:02:24;2.37;;;2.10;;
71836;SDS011;59686;51.716;7.016;2024-02-26T01:04:50;2.50;;;2.13;;
71836;SDS011;59686;51.716;7.016;2024-02-26T01:07:15;2.67;;;2.23;;
71836;SDS011;59686;51.716;7.016;2024-02-26T01:09:42;2.37;;;1.80;;
71836;SDS011;59686;51.716;7.016;2024-02-26T01:12:07;2.20;;;2.00;;
71836;SDS011;59686;51.716;7.016;2024-02-26T01:14:33;2.20;;;1.80;;
71836;SDS011;59686;51.716;7.016;2024-02-26T01:16:59;2.37;;;1.90;;
71836;SDS011;59686;51.716;7.016;2024-02-26T01:19:25;2.10;;;1.83;;
71836;SDS011;59686;51.716;7.016;2024-02-26T01:21:50;2.20;;;1.87;;
71836;SDS011;59686;51.716;7.016;2024-02-26T01:24:16;2.47;;;1.77;;
71836;SDS011;59686;51.716;7.016;2024-02-26T01:26:42;3.37;;;1.87;;
71836;SDS011;59686;51.716;7.016;2024-02-26T01:29:08;4.43;;;1.90;;
71836;SDS011;59686;51.716;7.016;2024-02-26T01:31:34;2.30;;;2.10;;
71836;SDS011;59686;51.716;7.016;2024-02-26T01:34:00;3.13;;;1.70;;
71836;SDS011;59686;51.716;7.016;2024-02-26T01:36:26;2.20;;;1.90;;
71836;SDS011;59686;51.716;7.016;2024-02-26T01:38:51;2.87;;;1.97;;
71836;SDS011;59686;51.716;7.016;2024-02-26T01:41:17;2.00;;;1.80;;
71836;SDS011;59686;51.716;7.016;2024-02-26T01:43:43;2.47;;;1.80;;
71836;SDS011;59686;51.716;7.016;2024-02-26T01:46:10;2.50;;;1.93;;
71836;SDS011;59686;51.716;7.016;2024-02-26T01:48:43;2.43;;;1.87;;
71836;SDS011;59686;51.716;7.016;2024-02-26T01:51:10;1.93;;;1.77;;
71836;SDS011;59686;51.716;7.016;2024-02-26T01:53:39;2.63;;;1.77;;
71836;SDS011;59686;51.716;7.016;2024-02-26T01:56:05;1.97;;;1.73;;
71836;SDS011;59686;51.716;7.016;2024-02-26T01:58:31;4.03;;;2.20;;
71836;SDS011;59686;51.716;7.016;2024-02-26T02:00:58;2.60;;;1.93;;
71836;SDS011;59686;51.716;7.016;2024-02-26T02:03:26;2.50;;;1.93;;
71836;SDS011;59686;51.716;7.016;2024-02-26T02:05:52;2.23;;;2.03;;
71836;SDS011;59686;51.716;7.016;2024-02-26T02:08:17;2.30;;;2.00;;
71836;SDS011;59686;51.716;7.016;2024-02-26T02:10:43;2.17;;;1.97;;
71836;SDS011;59686;51.716;7.016;2024-02-26T02:13:12;2.47;;;2.00;;
71836;SDS011;59686;51.716;7.016;2024-02-26T02:15:38;3.00;;;2.00;;
71836;SDS011;59686;51.716;7.016;2024-02-26T02:18:04;3.27;;;1.57;;
71836;SDS011;59686;51.716;7.016;2024-02-26T02:20:31;2.20;;;1.83;;
71836;SDS011;59686;51.716;7.016;2024-02-26T02:22:58;1.70;;;1.53;;
71836;SDS011;59686;51.716;7.016;2024-02-26T02:25:23;2.43;;;1.97;;
71836;SDS011;59686;51.716;7.016;2024-02-26T02:27:49;2.73;;;2.00;;
71836;SDS011;59686;51.716;7.016;2024-02-26T02:30:17;2.10;;;1.90;;
71836;SDS011;59686;51.716;7.016;2024-02-26T02:32:42;2.40;;;1.90;;
71836;SDS011;59686;51.716;7.016;2024-02-26T02:35:09;2.13;;;1.93;;
71836;SDS011;59686;51.716;7.016;2024-02-26T02:37:34;4.00;;;2.00;;
71836;SDS011;59686;51.716;7.016;2024-02-26T02:40:00;2.00;;;1.70;;
71836;SDS011;59686;51.716;7.016;2024-02-26T02:42:26;2.77;;;1.73;;
71836;SDS011;59686;51.716;7.016;2024-02-26T02:44:52;2.33;;;1.87;;
71836;SDS011;59686;51.716;7.016;2024-02-26T02:47:17;1.70;;;1.60;;
71836;SDS011;59686;51.716;7.016;2024-02-26T02:49:43;3.03;;;2.00;;
71836;SDS011;59686;51.716;7.016;2024-02-26T02:52:09;1.93;;;1.80;;
71836;SDS011;59686;51.716;7.016;2024-02-26T02:54:34;1.73;;;1.63;;
71836;SDS011;59686;51.716;7.016;2024-02-26T02:57:02;2.33;;;1.80;;
71836;SDS011;59686;51.716;7.016;2024-02-26T02:59:28;2.00;;;1.80;;
71836;SDS011;59686;51.716;7.016;2024-02-26T03:01:54;2.00;;;1.70;;
71836;SDS011;59686;51.716;7.016;2024-02-26T03:04:19;2.83;;;1.63;;
71836;SDS011;59686;51.716;7.016;2024-02-26T03:06:45;2.17;;;1.43;;
71836;SDS011;59686;51.716;7.016;2024-02-26T03:09:10;2.53;;;1.80;;
71836;SDS011;59686;51.716;7.016;2024-02-26T03:11:36;1.63;;;1.47;;
71836;SDS011;59686;51.716;7.016;2024-02-26T03:14:02;2.63;;;1.83;;
71836;SDS011;59686;51.716;7.016;2024-02-26T03:16:28;2.33;;;1.73;;
71836;SDS011;59686;51.716;7.016;2024-02-26T03:18:54;2.43;;;1.93;;
71836;SDS011;59686;51.716;7.016;2024-02-26T03:21:20;2.57;;;1.83;;
71836;SDS011;59686;51.716;7.016;2024-02-26T03:23:46;1.40;;;1.30;;
71836;SDS011;59686;51.716;7.016;2024-02-26T03:26:12;2.30;;;1.47;;
71836;SDS011;59686;51.716;7.016;2024-02-26T03:28:39;2.00;;;1.80;;
71836;SDS011;59686;51.716;7.016;2024-02-26T03:31:05;2.00;;;1.60;;
71836;SDS011;59686;51.716;7.016;2024-02-26T03:33:31;3.47;;;1.40;;
71836;SDS011;59686;51.716;7.016;2024-02-26T03:35:56;2.63;;;1.70;;
71836;SDS011;59686;51.716;7.016;2024-02-26T03:38:22;2.43;;;1.70;;
71836;SDS011;59686;51.716;7.016;2024-02-26T03:40:48;1.50;;;1.30;;
71836;SDS011;59686;51.716;7.016;2024-02-26T03:43:13;1.70;;;1.40;;
71836;SDS011;59686;51.716;7.016;2024-02-26T03:45:39;2.40;;;1.60;;
71836;SDS011;59686;51.716;7.016;2024-02-26T03:48:05;2.00;;;1.60;;
71836;SDS011;59686;51.716;7.016;2024-02-26T03:50:31;1.53;;;1.43;;
71836;SDS011;59686;51.716;7.016;2024-02-26T03:52:57;1.57;;;1.27;;
71836;SDS011;59686;51.716;7.016;2024-02-26T03:55:23;1.50;;;1.40;;
71836;SDS011;59686;51.716;7.016;2024-02-26T03:57:50;1.37;;;1.27;;
71836;SDS011;59686;51.716;7.016;2024-02-26T04:00:17;2.10;;;1.70;;
71836;SDS011;59686;51.716;7.016;2024-02-26T04:02:43;1.93;;;1.53;;
71836;SDS011;59686;51.716;7.016;2024-02-26T04:05:09;1.40;;;1.30;;
71836;SDS011;59686;51.716;7.016;2024-02-26T04:07:35;2.20;;;1.70;;
71836;SDS011;59686;51.716;7.016;2024-02-26T04:10:01;1.53;;;1.43;;
71836;SDS011;59686;51.716;7.016;2024-02-26T04:12:30;2.97;;;1.60;;
71836;SDS011;59686;51.716;7.016;2024-02-26T04:14:55;1.60;;;1.40;;
71836;SDS011;59686;51.716;7.016;2024-02-26T04:17:21;1.50;;;1.37;;
71836;SDS011;59686;51.716;7.016;2024-02-26T04:19:47;2.77;;;1.70;;
71836;SDS011;59686;51.716;7.016;2024-02-26T04:22:12;1.60;;;1.50;;
71836;SDS011;59686;51.716;7.016;2024-02-26T04:24:38;1.63;;;1.50;;
71836;SDS011;59686;51.716;7.016;2024-02-26T04:27:04;1.90;;;1.50;;
71836;SDS011;59686;51.716;7.016;2024-02-26T04:29:29;2.37;;;1.60;;
71836;SDS011;59686;51.716;7.016;2024-02-26T04:31:55;2.07;;;1.80;;
71836;SDS011;59686;51.716;7.016;2024-02-26T04:34:21;1.60;;;1.40;;
71836;SDS011;59686;51.716;7.016;2024-02-26T04:36:46;1.70;;;1.60;;
71836;SDS011;59686;51.716;7.016;2024-02-26T04:39:13;1.73;;;1.63;;
71836;SDS011;59686;51.716;7.016;2024-02-26T04:41:38;2.63;;;1.80;;
71836;SDS011;59686;51.716;7.016;2024-02-26T04:44:04;1.70;;;1.50;;
71836;SDS011;59686;51.716;7.016;2024-02-26T04:46:30;2.00;;;1.80;;
71836;SDS011;59686;51.716;7.016;2024-02-26T04:48:56;1.67;;;1.50;;
71836;SDS011;59686;51.716;7.016;2024-02-26T04:51:22;1.70;;;1.60;;
71836;SDS011;59686;51.716;7.016;2024-02-26T04:53:47;1.53;;;1.43;;
71836;SDS011;59686;51.716;7.016;2024-02-26T04:56:13;1.87;;;1.70;;
71836;SDS011;59686;51.716;7.016;2024-02-26T04:58:39;1.70;;;1.60;;
71836;SDS011;59686;51.716;7.016;2024-02-26T05:01:05;2.07;;;1.70;;
71836;SDS011;59686;51.716;7.016;2024-02-26T05:03:31;1.70;;;1.60;;
71836;SDS011;59686;51.716;7.016;2024-02-26T05:05:57;2.20;;;1.60;;
71836;SDS011;59686;51.716;7.016;2024-02-26T05:08:23;1.73;;;1.63;;
71836;SDS011;59686;51.716;7.016;2024-02-26T05:10:49;1.80;;;1.70;;
71836;SDS011;59686;51.716;7.016;2024-02-26T05:13:14;2.80;;;1.77;;
71836;SDS011;59686;51.716;7.016;2024-02-26T05:15:43;2.17;;;1.67;;
71836;SDS011;59686;51.716;7.016;2024-02-26T05:18:10;1.83;;;1.73;;
71836;SDS011;59686;51.716;7.016;2024-02-26T05:20:35;2.13;;;1.80;;
71836;SDS011;59686;51.716;7.016;2024-02-26T05:23:02;2.13;;;1.70;;
71836;SDS011;59686;51.716;7.016;2024-02-26T05:25:29;2.40;;;1.90;;
71836;SDS011;59686;51.716;7.016;2024-02-26T05:27:54;1.80;;;1.70;;
71836;SDS011;59686;51.716;7.016;2024-02-26T05:30:20;2.07;;;1.80;;
71836;SDS011;59686;51.716;7.016;2024-02-26T05:32:46;2.00;;;1.67;;
71836;SDS011;59686;51.716;7.016;2024-02-26T05:35:12;1.60;;;1.50;;
71836;SDS011;59686;51.716;7.016;2024-02-26T05:37:37;3.03;;;1.80;;
71836;SDS011;59686;51.716;7.016;2024-02-26T05:40:04;1.60;;;1.50;;
71836;SDS011;59686;51.716;7.016;2024-02-26T05:42:30;2.30;;;1.67;;
71836;SDS011;59686;51.716;7.016;2024-02-26T05:44:56;2.57;;;1.60;;
71836;SDS011;59686;51.716;7.016;2024-02-26T05:47:22;1.77;;;1.57;;
71836;SDS011;59686;51.716;7.016;2024-02-26T05:49:48;1.53;;;1.43;;
71836;SDS011;59686;51.716;7.016;2024-02-26T05:52:14;1.60;;;1.50;;
71836;SDS011;59686;51.716;7.016;2024-02-26T05:54:40;1.80;;;1.60;;
71836;SDS011;59686;51.716;7.016;2024-02-26T05:57:06;2.00;;;1.60;;
71836;SDS011;59686;51.716;7.016;2024-02-26T05:59:31;2.30;;;1.60;;
71836;SDS011;59686;51.716;7.016;2024-02-26T06:01:57;2.90;;;1.43;;
71836;SDS011;59686;51.716;7.016;2024-02-26T06:04:23;1.73;;;1.53;;
71836;SDS011;59686;51.716;7.016;2024-02-26T06:06:48;1.83;;;1.63;;
71836;SDS011;59686;51.716;7.016;2024-02-26T06:09:14;1.80;;;1.60;;
71836;SDS011;59686;51.716;7.016;2024-02-26T06:11:40;1.80;;;1.70;;
71836;SDS011;59686;51.716;7.016;2024-02-26T06:14:06;2.20;;;1.50;;
71836;SDS011;59686;51.716;7.016;2024-02-26T06:16:31;1.77;;;1.60;;
71836;SDS011;59686;51.716;7.016;2024-02-26T06:18:58;1.93;;;1.60;;
71836;SDS011;59686;51.716;7.016;2024-02-26T06:21:25;1.70;;;1.60;;
71836;SDS011;59686;51.716;7.016;2024-02-26T06:23:51;1.40;;;1.30;;
71836;SDS011;59686;51.716;7.016;2024-02-26T06:26:16;1.80;;;1.50;;
71836;SDS011;59686;51.716;7.016;2024-02-26T06:28:42;2.50;;;1.70;;
71836;SDS011;59686;51.716;7.016;2024-02-26T06:31:08;2.00;;;1.63;;
71836;SDS011;59686;51.716;7.016;2024-02-26T06:33:34;1.77;;;1.67;;
71836;SDS011;59686;51.716;7.016;2024-02-26T06:35:59;1.97;;;1.50;;
71836;SDS011;59686;51.716;7.016;2024-02-26T06:38:25;2.00;;;1.70;;
71836;SDS011;59686;51.716;7.016;2024-02-26T06:40:51;1.70;;;1.60;;
71836;SDS011;59686;51.716;7.016;2024-02-26T06:43:17;2.00;;;1.60;;
71836;SDS011;59686;51.716;7.016;2024-02-26T06:45:42;1.83;;;1.50;;
71836;SDS011;59686;51.716;7.016;2024-02-26T06:48:08;1.60;;;1.50;;
71836;SDS011;59686;51.716;7.016;2024-02-26T06:50:34;1.73;;;1.40;;
71836;SDS011;59686;51.716;7.016;2024-02-26T06:53:00;2.20;;;1.60;;
71836;SDS011;59686;51.716;7.016;2024-02-26T06:55:26;1.53;;;1.30;;
71836;SDS011;59686;51.716;7.016;2024-02-26T06:57:51;1.63;;;1.53;;
71836;SDS011;59686;51.716;7.016;2024-02-26T07:00:17;2.30;;;1.60;;
71836;SDS011;59686;51.716;7.016;2024-02-26T07:02:43;2.77;;;1.80;;
71836;SDS011;59686;51.716;7.016;2024-02-26T07:05:09;2.10;;;1.53;;
71836;SDS011;59686;51.716;7.016;2024-02-26T07:07:34;2.00;;;1.47;;
71836;SDS011;59686;51.716;7.016;2024-02-26T07:10:00;1.70;;;1.50;;
71836;SDS011;59686;51.716;7.016;2024-02-26T07:12:29;1.70;;;1.53;;
71836;SDS011;59686;51.716;7.016;2024-02-26T07:14:55;1.70;;;1.60;;
71836;SDS011;59686;51.716;7.016;2024-02-26T07:17:22;2.87;;;1.70;;
71836;SDS011;59686;51.716;7.016;2024-02-26T07:19:47;1.60;;;1.50;;
71836;SDS011;59686;51.716;7.016;2024-02-26T07:22:13;2.77;;;1.80;;
71836;SDS011;59686;51.716;7.016;2024-02-26T07:24:40;1.70;;;1.43;;
71836;SDS011;59686;51.716;7.016;2024-02-26T07:27:05;2.07;;;1.40;;
71836;SDS011;59686;51.716;7.016;2024-02-26T07:29:31;1.87;;;1.67;;
71836;SDS011;59686;51.716;7.016;2024-02-26T07:31:57;1.80;;;1.37;;
71836;SDS011;59686;51.716;7.016;2024-02-26T07:34:23;2.23;;;1.50;;
71836;SDS011;59686;51.716;7.016;2024-02-26T07:36:52;1.60;;;1.50;;
71836;SDS011;59686;51.716;7.016;2024-02-26T07:39:19;1.70;;;1.50;;
71836;SDS011;59686;51.716;7.016;2024-02-26T07:41:44;2.83;;;1.53;;
71836;SDS011;59686;51.716;7.016;2024-02-26T07:44:13;1.40;;;1.30;;
71836;SDS011;59686;51.716;7.016;2024-02-26T07:46:39;1.50;;;1.40;;
71836;SDS011;59686;51.716;7.016;2024-02-26T07:49:05;2.53;;;1.73;;
71836;SDS011;59686;51.716;7.016;2024-02-26T07:51:30;2.00;;;1.77;;
71836;SDS011;59686;51.716;7.016;2024-02-26T07:53:56;1.57;;;1.40;;
71836;SDS011;59686;51.716;7.016;2024-02-26T07:56:22;2.40;;;1.70;;
71836;SDS011;59686;51.716;7.016;2024-02-26T07:58:47;1.63;;;1.53;;
71836;SDS011;59686;51.716;7.016;2024-02-26T08:01:13;2.57;;;1.50;;
71836;SDS011;59686;51.716;7.016;2024-02-26T08:03:40;1.60;;;1.50;;
71836;SDS011;59686;51.716;7.016;2024-02-26T08:06:05;1.30;;;1.20;;
71836;SDS011;59686;51.716;7.016;2024-02-26T08:08:32;1.97;;;1.23;;
71836;SDS011;59686;51.716;7.016;2024-02-26T08:10:58;1.50;;;1.40;;
71836;SDS011;59686;51.716;7.016;2024-02-26T08:13:24;2.07;;;1.50;;
71836;SDS011;59686;51.716;7.016;2024-02-26T08:15:51;1.50;;;1.40;;
71836;SDS011;59686;51.716;7.016;2024-02-26T08:18:17;1.83;;;1.50;;
71836;SDS011;59686;51.716;7.016;2024-02-26T08:20:42;1.73;;;1.40;;
71836;SDS011;59686;51.716;7.016;2024-02-26T08:23:08;2.27;;;1.60;;
71836;SDS011;59686;51.716;7.016;2024-02-26T08:25:34;1.43;;;1.33;;
71836;SDS011;59686;51.716;7.016;2024-02-26T08:27:59;1.30;;;1.20;;
71836;SDS011;59686;51.716;7.016;2024-02-26T08:30:25;1.60;;;1.50;;
71836;SDS011;59686;51.716;7.016;2024-02-26T08:32:51;1.97;;;1.30;;
71836;SDS011;59686;51.716;7.016;2024-02-26T08:35:17;1.53;;;1.43;;
71836;SDS011;59686;51.716;7.016;2024-02-26T08:37:44;1.67;;;1.50;;
71836;SDS011;59686;51.716;7.016;2024-02-26T08:40:11;1.70;;;1.30;;
71836;SDS011;59686;51.716;7.016;2024-02-26T08:42:37;1.53;;;1.30;;
71836;SDS011;59686;51.716;7.016;2024-02-26T08:45:02;2.40;;;1.50;;
71836;SDS011;59686;51.716;7.016;2024-02-26T08:47:28;1.63;;;1.43;;
71836;SDS011;59686;51.716;7.016;2024-02-26T08:49:54;1.60;;;1.50;;
71836;SDS011;59686;51.716;7.016;2024-02-26T08:52:20;1.80;;;1.57;;
71836;SDS011;59686;51.716;7.016;2024-02-26T08:54:46;1.57;;;1.40;;
71836;SDS011;59686;51.716;7.016;2024-02-26T08:57:12;1.97;;;1.40;;
71836;SDS011;59686;51.716;7.016;2024-02-26T08:59:38;1.97;;;1.50;;
71836;SDS011;59686;51.716;7.016;2024-02-26T09:02:03;1.70;;;1.40;;
71836;SDS011;59686;51.716;7.016;2024-02-26T09:04:29;2.53;;;1.40;;
71836;SDS011;59686;51.716;7.016;2024-02-26T09:06:55;2.03;;;1.50;;
71836;SDS011;59686;51.716;7.016;2024-02-26T09:09:20;1.50;;;1.40;;
71836;SDS011;59686;51.716;7.016;2024-02-26T09:11:47;1.93;;;1.43;;
71836;SDS011;59686;51.716;7.016;2024-02-26T09:14:16;1.70;;;1.37;;
71836;SDS011;59686;51.716;7.016;2024-02-26T09:16:42;1.97;;;1.47;;
71836;SDS011;59686;51.716;7.016;2024-02-26T09:19:08;1.80;;;1.33;;
71836;SDS011;59686;51.716;7.016;2024-02-26T09:21:33;2.03;;;1.47;;
71836;SDS011;59686;51.716;7.016;2024-02-26T09:23:59;1.67;;;1.47;;
71836;SDS011;59686;51.716;7.016;2024-02-26T09:26:25;1.53;;;1.43;;
71836;SDS011;59686;51.716;7.016;2024-02-26T09:28:51;1.77;;;1.50;;
71836;SDS011;59686;51.716;7.016;2024-02-26T09:31:17;1.47;;;1.37;;
71836;SDS011;59686;51.716;7.016;2024-02-26T09:33:43;1.67;;;1.50;;
71836;SDS011;59686;51.716;7.016;2024-02-26T09:36:09;1.40;;;1.30;;
71836;SDS011;59686;51.716;7.016;2024-02-26T09:38:36;1.80;;;1.50;;
71836;SDS011;59686;51.716;7.016;2024-02-26T09:41:06;1.50;;;1.40;;
71836;SDS011;59686;51.716;7.016;2024-02-26T09:43:34;1.67;;;1.53;;
71836;SDS011;59686;51.716;7.016;2024-02-26T09:46:04;1.90;;;1.60;;
71836;SDS011;59686;51.716;7.016;2024-02-26T09:48:31;1.57;;;1.20;;
71836;SDS011;59686;51.716;7.016;2024-02-26T09:50:59;1.93;;;1.53;;
71836;SDS011;59686;51.716;7.016;2024-02-26T09:53:27;1.97;;;1.53;;
71836;SDS011;59686;51.716;7.016;2024-02-26T09:55:56;1.90;;;1.40;;
71836;SDS011;59686;51.716;7.016;2024-02-26T09:58:22;2.27;;;1.40;;
71836;SDS011;59686;51.716;7.016;2024-02-26T10:00:51;2.07;;;1.40;;
71836;SDS011;59686;51.716;7.016;2024-02-26T10:03:21;1.60;;;1.40;;
71836;SDS011;59686;51.716;7.016;2024-02-26T10:05:51;1.97;;;1.43;;
71836;SDS011;59686;51.716;7.016;2024-02-26T10:08:20;1.40;;;1.30;;
71836;SDS011;59686;51.716;7.016;2024-02-26T10:10:47;2.17;;;1.70;;
71836;SDS011;59686;51.716;7.016;2024-02-26T10:13:13;1.83;;;1.40;;
71836;SDS011;59686;51.716;7.016;2024-02-26T10:15:39;2.07;;;1.57;;
71836;SDS011;59686;51.716;7.016;2024-02-26T10:18:05;3.13;;;2.00;;
71836;SDS011;59686;51.716;7.016;2024-02-26T10:20:31;2.50;;;2.03;;
71836;SDS011;59686;51.716;7.016;2024-02-26T10:22:58;2.40;;;2.00;;
71836;SDS011;59686;51.716;7.016;2024-02-26T10:25:23;2.20;;;2.00;;
71836;SDS011;59686;51.716;7.016;2024-02-26T10:27:49;1.67;;;1.57;;
71836;SDS011;59686;51.716;7.016;2024-02-26T10:30:19;2.43;;;2.00;;
71836;SDS011;59686;51.716;7.016;2024-02-26T10:32:51;3.20;;;2.47;;
71836;SDS011;59686;51.716;7.016;2024-02-26T10:35:17;2.87;;;2.30;;
71836;SDS011;59686;51.716;7.016;2024-02-26T10:37:46;2.67;;;2.10;;
71836;SDS011;59686;51.716;7.016;2024-02-26T10:40:12;2.70;;;2.40;;
71836;SDS011;59686;51.716;7.016;2024-02-26T10:42:39;2.53;;;2.30;;
71836;SDS011;59686;51.716;7.016;2024-02-26T10:45:06;3.90;;;2.60;;
71836;SDS011;59686;51.716;7.016;2024-02-26T10:47:34;3.07;;;2.60;;
71836;SDS011;59686;51.716;7.016;2024-02-26T10:50:04;2.67;;;2.20;;
71836;SDS011;59686;51.716;7.016;2024-02-26T10:52:32;3.10;;;2.60;;
71836;SDS011;59686;51.716;7.016;2024-02-26T10:55:02;4.17;;;2.43;;
71836;SDS011;59686;51.716;7.016;2024-02-26T10:57:39;3.10;;;2.63;;
71836;SDS011;59686;51.716;7.016;2024-02-26T11:00:06;3.90;;;2.90;;
71836;SDS011;59686;51.716;7.016;2024-02-26T11:02:35;3.60;;;2.93;;
71836;SDS011;59686;51.716;7.016;2024-02-26T11:05:02;7.07;;;2.90;;
71836;SDS011;59686;51.716;7.016;2024-02-26T11:07:29;3.00;;;2.70;;
71836;SDS011;59686;51.716;7.016;2024-02-26T11:09:56;3.57;;;2.90;;
71836;SDS011;59686;51.716;7.016;2024-02-26T11:12:22;3.40;;;3.10;;
71836;SDS011;59686;51.716;7.016;2024-02-26T11:14:49;4.03;;;3.07;;
71836;SDS011;59686;51.716;7.016;2024-02-26T11:17:19;3.93;;;3.10;;
71836;SDS011;59686;51.716;7.016;2024-02-26T11:19:46;3.67;;;2.77;;
71836;SDS011;59686;51.716;7.016;2024-02-26T11:22:14;4.60;;;3.40;;
71836;SDS011;59686;51.716;7.016;2024-02-26T11:24:40;4.93;;;3.20;;
71836;SDS011;59686;51.716;7.016;2024-02-26T11:27:06;4.23;;;3.47;;
71836;SDS011;59686;51.716;7.016;2024-02-26T11:29:37;4.37;;;3.37;;
71836;SDS011;59686;51.716;7.016;2024-02-26T11:32:05;5.70;;;3.60;;
71836;SDS011;59686;51.716;7.016;2024-02-26T11:34:32;3.97;;;2.97;;
71836;SDS011;59686;51.716;7.016;2024-02-26T11:36:58;6.40;;;3.50;;
71836;SDS011;59686;51.716;7.016;2024-02-26T11:39:34;5.07;;;3.63;;
71836;SDS011;59686;51.716;7.016;2024-02-26T11:42:12;4.90;;;3.37;;
71836;SDS011;59686;51.716;7.016;2024-02-26T11:44:40;4.47;;;3.70;;
71836;SDS011;59686;51.716;7.016;2024-02-26T11:49:45;5.03;;;3.37;;
71836;SDS011;59686;51.716;7.016;2024-02-26T11:52:12;4.60;;;3.70;;
71836;SDS011;59686;51.716;7.016;2024-02-26T11:57:29;5.00;;;3.70;;
71836;SDS011;59686;51.716;7.016;2024-02-26T12:00:12;5.37;;;3.43;;
71836;SDS011;59686;51.716;7.016;2024-02-26T12:05:14;4.63;;;3.70;;
71836;SDS011;59686;51.716;7.016;2024-02-26T12:07:45;5.03;;;3.50;;
71836;SDS011;59686;51.716;7.016;2024-02-26T12:15:37;5.20;;;3.57;;
71836;SDS011;59686;51.716;7.016;2024-02-26T12:18:04;4.60;;;3.67;;
71836;SDS011;59686;51.716;7.016;2024-02-26T12:20:32;4.33;;;3.57;;
71836;SDS011;59686;51.716;7.016;2024-02-26T12:22:59;4.00;;;3.60;;
71836;SDS011;59686;51.716;7.016;2024-02-26T12:25:28;4.63;;;3.80;;
71836;SDS011;59686;51.716;7.016;2024-02-26T12:27:55;5.90;;;4.17;;
71836;SDS011;59686;51.716;7.016;2024-02-26T12:30:21;4.93;;;3.83;;
71836;SDS011;59686;51.716;7.016;2024-02-26T12:32:48;4.33;;;3.60;;
71836;SDS011;59686;51.716;7.016;2024-02-26T12:35:15;4.50;;;3.43;;
71836;SDS011;59686;51.716;7.016;2024-02-26T12:37:41;7.60;;;3.83;;
71836;SDS011;59686;51.716;7.016;2024-02-26T12:40:08;3.70;;;3.33;;
71836;SDS011;59686;51.716;7.016;2024-02-26T12:42:35;4.63;;;3.57;;
71836;SDS011;59686;51.716;7.016;2024-02-26T12:45:14;4.20;;;3.80;;
71836;SDS011;59686;51.716;7.016;2024-02-26T12:47:42;4.20;;;3.53;;
71836;SDS011;59686;51.716;7.016;2024-02-26T12:50:09;5.27;;;3.37;;
71836;SDS011;59686;51.716;7.016;2024-02-26T12:52:36;3.63;;;3.33;;
71836;SDS011;59686;51.716;7.016;2024-02-26T12:55:08;3.73;;;3.00;;
71836;SDS011;59686;51.716;7.016;2024-02-26T12:57:37;3.73;;;3.17;;
71836;SDS011;59686;51.716;7.016;2024-02-26T13:00:06;5.10;;;3.00;;
71836;SDS011;59686;51.716;7.016;2024-02-26T13:02:36;3.57;;;2.83;;
71836;SDS011;59686;51.716;7.016;2024-02-26T13:05:03;3.50;;;3.20;;
71836;SDS011;59686;51.716;7.016;2024-02-26T13:07:30;3.57;;;3.13;;
71836;SDS011;59686;51.716;7.016;2024-02-26T13:09:56;3.40;;;2.57;;
71836;SDS011;59686;51.716;7.016;2024-02-26T13:12:22;5.47;;;3.10;;
71836;SDS011;59686;51.716;7.016;2024-02-26T13:14:58;3.10;;;2.80;;
71836;SDS011;59686;51.716;7.016;2024-02-26T13:17:24;3.67;;;2.93;;
71836;SDS011;59686;51.716;7.016;2024-02-26T13:19:53;3.90;;;3.50;;
71836;SDS011;59686;51.716;7.016;2024-02-26T13:22:22;3.40;;;2.73;;
71836;SDS011;59686;51.716;7.016;2024-02-26T13:24:55;3.07;;;2.77;;
71836;SDS011;59686;51.716;7.016;2024-02-26T13:27:22;6.07;;;2.70;;
71836;SDS011;59686;51.716;7.016;2024-02-26T13:29:49;3.10;;;2.70;;
71836;SDS011;59686;51.716;7.016;2024-02-26T13:32:26;3.57;;;2.90;;
71836;SDS011;59686;51.716;7.016;2024-02-26T13:35:03;2.90;;;2.67;;
71836;SDS011;59686;51.716;7.016;2024-02-26T13:37:31;2.77;;;2.43;;
71836;SDS011;59686;51.716;7.016;2024-02-26T13:39:56;2.70;;;2.50;;
71836;SDS011;59686;51.716;7.016;2024-02-26T13:42:22;3.00;;;2.53;;
71836;SDS011;59686;51.716;7.016;2024-02-26T13:44:48;4.03;;;2.77;;
71836;SDS011;59686;51.716;7.016;2024-02-26T13:47:13;3.20;;;2.70;;
71836;SDS011;59686;51.716;7.016;2024-02-26T13:49:39;3.07;;;2.63;;
71836;SDS011;59686;51.716;7.016;2024-02-26T13:52:05;4.17;;;2.60;;
71836;SDS011;59686;51.716;7.016;2024-02-26T13:54:31;2.80;;;2.50;;
71836;SDS011;59686;51.716;7.016;2024-02-26T13:56:57;3.10;;;2.80;;
71836;SDS011;59686;51.716;7.016;2024-02-26T13:59:23;3.17;;;2.80;;
71836;SDS011;59686;51.716;7.016;2024-02-26T14:01:49;2.83;;;2.53;;
71836;SDS011;59686;51.716;7.016;2024-02-26T14:04:14;3.13;;;2.80;;
71836;SDS011;59686;51.716;7.016;2024-02-26T14:06:41;3.10;;;2.80;;
71836;SDS011;59686;51.716;7.016;2024-02-26T14:09:07;3.17;;;2.50;;
71836;SDS011;59686;51.716;7.016;2024-02-26T14:11:33;3.57;;;2.60;;
71836;SDS011;59686;51.716;7.016;2024-02-26T14:13:59;3.33;;;2.63;;
71836;SDS011;59686;51.716;7.016;2024-02-26T14:16:25;3.80;;;2.83;;
71836;SDS011;59686;51.716;7.016;2024-02-26T14:18:50;3.63;;;2.80;;
71836;SDS011;59686;51.716;7.016;2024-02-26T14:21:16;2.73;;;2.43;;
71836;SDS011;59686;51.716;7.016;2024-02-26T14:23:42;3.70;;;2.43;;
71836;SDS011;59686;51.716;7.016;2024-02-26T14:26:09;3.10;;;2.63;;
71836;SDS011;59686;51.716;7.016;2024-02-26T14:28:35;3.00;;;2.70;;
71836;SDS011;59686;51.716;7.016;2024-02-26T14:31:01;3.43;;;2.70;;
71836;SDS011;59686;51.716;7.016;2024-02-26T14:33:26;4.40;;;3.03;;
71836;SDS011;59686;51.716;7.016;2024-02-26T14:35:52;3.43;;;2.60;;
71836;SDS011;59686;51.716;7.016;2024-02-26T14:38:18;4.93;;;3.00;;
71836;SDS011;59686;51.716;7.016;2024-02-26T14:40:43;3.13;;;2.60;;
71836;SDS011;59686;51.716;7.016;2024-02-26T14:43:09;3.13;;;2.80;;
71836;SDS011;59686;51.716;7.016;2024-02-26T14:45:35;3.83;;;2.87;;
71836;SDS011;59686;51.716;7.016;2024-02-26T14:48:01;3.17;;;2.87;;
71836;SDS011;59686;51.716;7.016;2024-02-26T14:50:27;3.40;;;2.93;;
71836;SDS011;59686;51.716;7.016;2024-02-26T14:52:53;3.10;;;2.80;;
71836;SDS011;59686;51.716;7.016;2024-02-26T14:55:19;3.37;;;2.97;;
71836;SDS011;59686;51.716;7.016;2024-02-26T14:57:44;4.30;;;3.50;;